Time;durP1;ratioP1;P1;durP2;ratioP2;P2;SDS_P1;SDS_P2;PMS_P1;PMS_P2;Temp;Humidity;BMP_temperature;BMP_pressure;BME280_temperature;BME280_humidity;BME280_pressure;Samples;Min_cycle;Max_cycle;Signal;HPM_P1;HPM_P2
2022/03/22 00:00:19;;;;;;;10.93;3.93;;;;;;;3.86;64.07;97605.25;5079282;28;20818;-69
2022/03/22 00:02:45;;;;;;;10.13;3.90;;;;;;;3.74;63.58;97603.44;5078468;28;20211;-69
2022/03/22 00:05:12;;;;;;;6.80;4.13;;;;;;;3.77;63.68;97598.88;5079410;28;20234;-69
2022/03/22 00:07:38;;;;;;;9.60;4.10;;;;;;;3.78;63.99;97605.78;5079188;28;20720;-69
2022/03/22 00:10:06;;;;;;;8.37;4.47;;;;;;;3.87;64.82;97601.69;5079167;28;20207;-69
2022/03/22 00:12:32;;;;;;;6.47;3.57;;;;;;;3.67;65.00;97597.81;5078630;28;20219;-69
2022/03/22 00:14:59;;;;;;;6.03;3.60;;;;;;;3.52;65.04;97605.00;5078966;28;20787;-69
2022/03/22 00:17:27;;;;;;;6.10;2.47;;;;;;;3.74;65.53;97609.53;5078871;28;20214;-69
2022/03/22 00:19:53;;;;;;;10.37;4.30;;;;;;;3.68;64.84;97609.94;5079337;28;20231;-69
2022/03/22 00:22:20;;;;;;;9.40;3.03;;;;;;;3.57;64.58;97602.94;5078481;28;20210;-69
2022/03/22 00:24:46;;;;;;;5.63;3.67;;;;;;;3.57;65.27;97606.34;5078769;28;21167;-69
2022/03/22 00:27:13;;;;;;;3.50;1.97;;;;;;;3.45;65.48;97606.31;5075759;28;20226;-69
2022/03/22 00:29:39;;;;;;;6.67;3.40;;;;;;;3.49;65.64;97602.56;5079692;28;20200;-69
2022/03/22 00:32:08;;;;;;;5.20;3.50;;;;;;;3.59;65.85;97606.25;5078322;28;20199;-70
2022/03/22 00:34:44;;;;;;;10.07;4.00;;;;;;;3.66;65.84;97598.75;5077902;28;20222;-69
2022/03/22 00:37:11;;;;;;;6.50;4.17;;;;;;;3.27;66.48;97604.94;5080204;28;20227;-69
2022/03/22 00:39:37;;;;;;;3.97;2.50;;;;;;;3.26;65.62;97604.09;5078758;28;20206;-70
2022/03/22 00:42:04;;;;;;;6.30;3.20;;;;;;;3.39;66.12;97609.34;5077817;28;20222;-70
2022/03/22 00:44:30;;;;;;;7.30;3.93;;;;;;;3.30;66.29;97609.97;5078587;28;20590;-69
2022/03/22 00:46:57;;;;;;;11.97;5.70;;;;;;;3.32;65.63;97602.88;5078649;28;20226;-69
2022/03/22 00:49:23;;;;;;;5.63;3.17;;;;;;;3.18;66.25;97593.34;5078002;28;20200;-69
2022/03/22 00:51:51;;;;;;;6.07;3.83;;;;;;;3.37;66.29;97601.63;5078939;28;20203;-69
2022/03/22 00:54:19;;;;;;;10.43;4.60;;;;;;;3.22;65.02;97602.63;5077997;28;20219;-69
2022/03/22 00:56:45;;;;;;;10.93;3.87;;;;;;;3.21;65.55;97608.78;5078453;28;20195;-69
2022/03/22 01:01:56;;;;;;;5.40;3.23;;;;;;;3.01;66.80;97601.41;5078402;28;20236;-69
2022/03/22 01:04:24;;;;;;;36.97;4.90;;;;;;;2.99;67.14;97607.63;5077447;28;20252;-70
2022/03/22 01:06:52;;;;;;;4.87;3.40;;;;;;;2.89;67.52;97606.56;5078645;28;20237;-69
2022/03/22 01:09:18;;;;;;;11.50;3.90;;;;;;;2.84;66.96;97603.44;5078512;28;20203;-69
2022/03/22 01:11:46;;;;;;;2.90;2.40;;;;;;;2.93;66.48;97605.44;5078006;28;20234;-69
2022/03/22 01:14:13;;;;;;;26.07;3.47;;;;;;;3.02;66.89;97608.28;5077225;28;20226;-70
2022/03/22 01:16:40;;;;;;;8.93;3.43;;;;;;;2.93;67.09;97613.25;5078241;28;20638;-69
2022/03/22 01:19:06;;;;;;;8.13;4.17;;;;;;;2.88;66.99;97617.06;5078001;28;20299;-69
2022/03/22 01:21:33;;;;;;;6.10;3.20;;;;;;;2.81;67.81;97616.63;5078191;28;20594;-69
2022/03/22 01:24:03;;;;;;;4.83;3.33;;;;;;;2.97;67.07;97619.94;5076850;28;20242;-69
2022/03/22 01:26:30;;;;;;;6.87;3.00;;;;;;;2.58;67.13;97617.25;5074690;28;20238;-69
2022/03/22 01:28:56;;;;;;;11.80;3.90;;;;;;;2.70;66.81;97618.22;5077534;28;20204;-69
2022/03/22 01:31:25;;;;;;;6.13;3.13;;;;;;;2.86;65.98;97613.75;5077589;28;20707;-69
2022/03/22 01:33:52;;;;;;;9.93;4.30;;;;;;;2.82;66.55;97617.47;5077211;28;20223;-69
2022/03/22 01:36:18;;;;;;;10.60;5.07;;;;;;;2.81;66.51;97611.41;5077456;28;20199;-70
2022/03/22 01:38:46;;;;;;;5.67;3.97;;;;;;;2.86;66.26;97605.94;5077852;28;20234;-69
2022/03/22 01:41:14;;;;;;;2.57;2.00;;;;;;;3.02;65.99;97605.69;5077822;28;20214;-69
2022/03/22 01:43:41;;;;;;;9.77;3.50;;;;;;;2.77;67.36;97612.53;5076551;28;20665;-69
2022/03/22 01:46:07;;;;;;;6.57;3.10;;;;;;;2.82;67.29;97613.09;5077245;28;20218;-69
2022/03/22 01:48:34;;;;;;;4.50;3.00;;;;;;;2.76;66.98;97616.09;5078848;28;20219;-69
2022/03/22 01:51:00;;;;;;;7.30;3.17;;;;;;;2.65;67.03;97610.72;5077104;28;20212;-69
2022/03/22 01:53:28;;;;;;;7.13;2.23;;;;;;;2.49;68.01;97602.19;5076070;28;20202;-69
2022/03/22 01:55:54;;;;;;;4.33;2.43;;;;;;;2.24;68.21;97606.41;5077493;28;20208;-69
2022/03/22 01:58:24;;;;;;;10.73;3.87;;;;;;;2.38;68.31;97600.34;5077803;28;20203;-69
2022/03/22 02:05:51;;;;;;;9.83;3.53;;;;;;;2.40;67.99;97597.56;5077312;28;20246;-69
2022/03/22 02:06:29;;;;;;;7.67;3.30;;;;;;;2.58;67.71;97587.78;5076759;28;20285;-69
2022/03/22 02:08:56;;;;;;;12.23;5.47;;;;;;;2.52;67.04;97594.22;5077321;28;20210;-69
2022/03/22 02:11:22;;;;;;;7.00;2.83;;;;;;;2.40;66.94;97589.75;5076880;28;20218;-69
2022/03/22 02:13:51;;;;;;;8.47;2.83;;;;;;;2.41;67.00;97593.22;5076109;28;20928;-68
2022/03/22 02:16:17;;;;;;;9.60;4.27;;;;;;;2.03;68.60;97596.47;5076914;28;20257;-69
2022/03/22 02:18:45;;;;;;;9.20;4.13;;;;;;;2.19;68.27;97602.41;5077238;28;20321;-69
2022/03/22 02:21:15;;;;;;;5.33;2.70;;;;;;;2.30;67.14;97603.41;5077380;28;20199;-69
2022/03/22 02:23:50;;;;;;;7.10;3.97;;;;;;;2.38;66.17;97601.22;5076337;28;20232;-69
2022/03/22 02:26:17;;;;;;;9.70;3.93;;;;;;;1.94;68.25;97591.84;5073835;28;20297;-69
2022/03/22 02:28:44;;;;;;;5.67;2.87;;;;;;;1.81;69.74;97589.13;5077203;28;20207;-70
2022/03/22 02:31:11;;;;;;;4.07;3.10;;;;;;;2.03;69.88;97583.47;5077113;28;20261;-69
2022/03/22 02:33:41;;;;;;;7.77;3.03;;;;;;;2.09;70.03;97591.75;5076165;28;20204;-69
2022/03/22 02:36:07;;;;;;;5.47;3.77;;;;;;;2.00;69.31;97591.47;5076357;28;20694;-69
2022/03/22 02:38:34;;;;;;;4.63;2.90;;;;;;;1.98;69.90;97593.31;5077167;28;20214;-70
2022/03/22 02:41:02;;;;;;;10.00;4.30;;;;;;;2.09;70.07;97585.72;5076854;28;20203;-69
2022/03/22 02:43:29;;;;;;;5.40;2.33;;;;;;;2.02;70.21;97587.00;5075029;28;20207;-69
2022/03/22 02:45:56;;;;;;;4.70;2.80;;;;;;;2.02;70.77;97597.41;5076148;28;21016;-69
2022/03/22 02:48:22;;;;;;;8.07;3.60;;;;;;;1.84;71.27;97595.91;5077113;28;20224;-69
2022/03/22 02:50:49;;;;;;;9.77;3.97;;;;;;;1.93;71.23;97597.97;5076519;28;20687;-68
2022/03/22 02:53:15;;;;;;;8.80;3.30;;;;;;;2.05;68.89;97597.22;5075777;28;20202;-69
2022/03/22 02:55:41;;;;;;;6.07;3.50;;;;;;;1.71;68.67;97597.56;5076806;28;20223;-70
2022/03/22 02:58:09;;;;;;;4.53;2.80;;;;;;;1.97;69.00;97599.44;5076395;28;20568;-69
2022/03/22 03:00:36;;;;;;;3.23;2.43;;;;;;;1.89;69.91;97601.66;5075836;28;20207;-69
2022/03/22 03:03:03;;;;;;;6.77;3.10;;;;;;;1.80;69.94;97603.03;5076121;28;20226;-68
2022/03/22 03:05:29;;;;;;;2.87;2.60;;;;;;;1.81;69.81;97591.72;5077061;28;20289;-69
2022/03/22 03:07:56;;;;;;;6.53;3.87;;;;;;;1.83;69.58;97596.84;5072843;28;20223;-69
2022/03/22 03:10:22;;;;;;;6.53;3.57;;;;;;;1.75;68.97;97603.44;5076371;28;20197;-69
2022/03/22 03:12:58;;;;;;;5.80;2.97;;;;;;;2.01;68.61;97600.91;5076003;28;20207;-69
2022/03/22 03:15:26;;;;;;;6.73;2.50;;;;;;;1.78;69.83;97596.25;5076254;28;20219;-69
2022/03/22 03:17:52;;;;;;;6.07;3.80;;;;;;;1.87;69.50;97603.50;5076531;28;20202;-69
2022/03/22 03:20:19;;;;;;;8.37;3.77;;;;;;;1.92;69.01;97598.88;5076089;28;20203;-70
2022/03/22 03:22:45;;;;;;;4.93;3.33;;;;;;;1.90;69.71;97605.94;5075551;28;20199;-69
2022/03/22 03:25:13;;;;;;;6.00;3.97;;;;;;;1.92;69.67;97604.06;5078481;28;20223;-69
2022/03/22 03:27:39;;;;;;;5.77;3.43;;;;;;;1.78;69.43;97598.03;5078317;28;20272;-69
2022/03/22 03:30:07;;;;;;;4.50;3.27;;;;;;;1.67;68.38;97603.88;5079776;28;20299;-69
2022/03/22 03:32:35;;;;;;;5.80;3.43;;;;;;;1.57;69.84;97605.34;5079378;28;20215;-70
2022/03/22 03:35:02;;;;;;;7.77;5.10;;;;;;;1.29;70.35;97607.84;5079844;28;20224;-69
2022/03/22 03:37:29;;;;;;;9.67;3.37;;;;;;;1.41;70.70;97607.16;5080163;28;20210;-69
2022/03/22 03:39:56;;;;;;;7.10;2.37;;;;;;;1.58;70.64;97609.63;5080472;28;20196;-70
2022/03/22 03:42:22;;;;;;;5.93;3.40;;;;;;;1.50;69.84;97610.97;5079214;28;20262;-70
2022/03/22 03:47:35;;;;;;;2.10;1.60;;;;;;;1.62;69.40;97608.50;5079946;28;20226;-69
2022/03/22 03:50:05;;;;;;;6.57;3.27;;;;;;;1.32;71.26;97612.91;5080070;28;20717;-70
2022/03/22 03:52:34;;;;;;;10.80;3.50;;;;;;;1.24;72.10;97622.84;5079155;28;20617;-69
2022/03/22 03:55:01;;;;;;;8.73;3.53;;;;;;;1.48;71.35;97623.22;5079207;28;20251;-70
2022/03/22 03:57:28;;;;;;;5.30;3.17;;;;;;;1.53;69.98;97631.59;5079636;28;20210;-69
2022/03/22 03:59:56;;;;;;;4.57;2.47;;;;;;;1.65;70.05;97623.06;5079552;28;20207;-69
2022/03/22 04:02:24;;;;;;;10.17;3.60;;;;;;;1.64;69.21;97622.22;5078777;28;20199;-69
2022/03/22 04:04:52;;;;;;;12.67;4.37;;;;;;;1.40;68.79;97630.59;5079743;28;20322;-69
2022/03/22 04:07:21;;;;;;;7.73;3.77;;;;;;;1.50;68.69;97627.41;5079088;28;20591;-70
2022/03/22 04:09:48;;;;;;;5.17;3.17;;;;;;;1.48;69.43;97624.06;5079295;28;20204;-69
2022/03/22 04:12:15;;;;;;;2.43;2.13;;;;;;;1.26;70.80;97633.16;5079264;28;20926;-69
2022/03/22 04:14:42;;;;;;;8.67;3.30;;;;;;;1.46;70.81;97625.91;5078876;28;20217;-69
2022/03/22 04:17:08;;;;;;;3.63;3.10;;;;;;;1.59;70.30;97621.69;5078556;28;20211;-69
2022/03/22 04:19:35;;;;;;;12.60;4.43;;;;;;;1.46;71.14;97632.84;5079827;28;20576;-69
2022/03/22 04:22:04;;;;;;;2.80;2.60;;;;;;;1.55;70.44;97629.72;5079779;28;20208;-69
2022/03/22 04:24:31;;;;;;;8.30;3.70;;;;;;;1.40;70.69;97631.47;5078212;28;20233;-70
2022/03/22 04:32:41;;;;;;;3.27;2.80;;;;;;;1.44;70.53;97630.34;5075832;28;20203;-69
2022/03/22 04:32:44;;;;;;;6.67;3.67;;;;;;;1.07;70.35;97632.53;5077878;28;20236;-69
2022/03/22 04:35:12;;;;;;;4.60;3.07;;;;;;;1.13;70.03;97633.94;5078498;28;20235;-69
2022/03/22 04:37:40;;;;;;;6.40;4.00;;;;;;;1.17;70.56;97638.88;5079044;28;20204;-69
2022/03/22 04:40:08;;;;;;;3.17;2.97;;;;;;;1.03;71.27;97633.66;5078827;28;20206;-69
2022/03/22 04:42:35;;;;;;;4.90;3.57;;;;;;;1.06;71.73;97635.19;5077892;28;20276;-69
2022/03/22 04:45:02;;;;;;;7.97;3.90;;;;;;;1.09;72.43;97643.66;5078794;28;20742;-69
2022/03/22 04:47:29;;;;;;;6.70;3.60;;;;;;;1.05;73.52;97643.94;5078714;28;20230;-68
2022/03/22 04:49:55;;;;;;;1.63;1.53;;;;;;;1.02;73.23;97642.34;5078248;28;20858;-69
2022/03/22 04:57:53;;;;;;;11.27;5.30;;;;;;;0.90;72.22;97644.78;5078377;28;20653;-69
2022/03/22 05:00:20;;;;;;;4.33;2.70;;;;;;;1.13;72.48;97646.94;5078525;28;20197;-69
2022/03/22 05:02:47;;;;;;;11.53;3.97;;;;;;;1.06;72.32;97653.38;5077786;28;20202;-69
2022/03/22 05:05:14;;;;;;;11.47;2.83;;;;;;;1.06;72.31;97658.56;5078189;28;20224;-70
2022/03/22 05:07:41;;;;;;;3.57;2.50;;;;;;;0.84;72.90;97650.28;5078295;28;20643;-69
2022/03/22 05:10:11;;;;;;;5.80;3.00;;;;;;;1.01;72.96;97656.22;5078436;28;20207;-69
2022/03/22 05:12:40;;;;;;;5.87;3.07;;;;;;;0.92;72.86;97658.50;5077127;28;20204;-70
2022/03/22 05:15:09;;;;;;;4.63;3.40;;;;;;;0.94;72.09;97664.44;5077643;28;20319;-69
2022/03/22 05:17:36;;;;;;;2.73;2.20;;;;;;;0.91;69.74;97667.22;5078033;28;20659;-69
2022/03/22 05:20:04;;;;;;;6.10;3.33;;;;;;;0.87;70.21;97670.91;5078294;28;20208;-69
2022/03/22 05:22:31;;;;;;;4.03;2.47;;;;;;;0.75;70.83;97663.78;5077321;28;20203;-69
2022/03/22 05:24:58;;;;;;;6.23;3.67;;;;;;;0.90;70.00;97668.94;5077684;28;20224;-70
2022/03/22 05:27:26;;;;;;;6.97;3.53;;;;;;;1.02;71.61;97662.25;5074938;28;20231;-69
2022/03/22 05:29:52;;;;;;;4.47;3.03;;;;;;;0.99;72.27;97675.41;5077683;28;20715;-70
2022/03/22 05:32:19;;;;;;;4.90;3.77;;;;;;;1.06;71.63;97663.75;5077443;28;20200;-69
2022/03/22 05:34:45;;;;;;;11.27;3.90;;;;;;;1.07;70.94;97666.28;5078532;28;20227;-69
2022/03/22 05:37:13;;;;;;;3.80;3.27;;;;;;;1.21;70.65;97667.19;5077793;28;20207;-69
2022/03/22 05:39:40;;;;;;;4.37;3.97;;;;;;;1.06;69.83;97666.34;5077665;28;20286;-69
2022/03/22 05:42:07;;;;;;;17.33;7.35;;;;;;;1.07;71.38;97668.88;5076431;28;20436;-69
2022/03/22 05:44:36;;;;;;;14.23;5.97;;;;;;;1.36;71.27;97670.66;5077164;28;21173;-69
2022/03/22 05:47:02;;;;;;;11.67;3.47;;;;;;;1.23;71.43;97669.69;5076897;28;20208;-69
2022/03/22 05:49:29;;;;;;;9.40;4.77;;;;;;;1.03;71.66;97666.53;5077617;28;20228;-70
2022/03/22 05:51:56;;;;;;;6.80;4.07;;;;;;;1.11;72.34;97669.53;5077253;28;20200;-69
2022/03/22 05:54:22;;;;;;;4.77;3.10;;;;;;;1.17;71.48;97675.22;5076816;28;20267;-70
2022/03/22 05:56:49;;;;;;;8.53;2.20;;;;;;;1.19;71.96;97682.94;5077305;28;20200;-69
2022/03/22 05:59:15;;;;;;;12.10;3.57;;;;;;;1.30;71.92;97674.44;5076757;28;20209;-69
2022/03/22 06:01:44;;;;;;;9.20;3.47;;;;;;;1.63;71.29;97664.75;5077587;28;20211;-69
2022/03/22 06:04:11;;;;;;;5.67;3.40;;;;;;;1.31;71.29;97676.13;5076235;28;20235;-69
2022/03/22 06:06:37;;;;;;;6.07;3.70;;;;;;;1.58;71.32;97673.69;5077281;28;20211;-69
2022/03/22 06:09:04;;;;;;;6.20;4.60;;;;;;;1.66;71.61;97674.94;5076679;28;20235;-69
2022/03/22 06:11:35;;;;;;;4.83;3.37;;;;;;;1.65;71.91;97667.25;5076914;28;20349;-69
2022/03/22 06:14:03;;;;;;;6.97;4.53;;;;;;;1.80;71.94;97671.56;5076140;28;20224;-69
2022/03/22 06:16:29;;;;;;;5.03;3.27;;;;;;;1.75;71.48;97674.41;5077029;28;20214;-69
2022/03/22 06:18:57;;;;;;;2.90;2.67;;;;;;;2.03;72.07;97669.28;5076951;28;20300;-70
2022/03/22 06:21:24;;;;;;;7.23;4.23;;;;;;;2.02;71.68;97672.78;5076844;28;20831;-69
2022/03/22 06:23:51;;;;;;;10.23;4.10;;;;;;;2.01;71.86;97671.97;5076113;28;20226;-69
2022/03/22 06:26:18;;;;;;;9.87;4.70;;;;;;;2.22;71.74;97669.84;5074279;28;20320;-70
2022/03/22 06:28:44;;;;;;;5.47;4.27;;;;;;;2.34;71.42;97680.31;5077009;28;20224;-70
2022/03/22 06:31:11;;;;;;;5.63;3.33;;;;;;;2.46;72.04;97680.44;5076373;28;20214;-70
2022/03/22 06:33:38;;;;;;;6.87;3.47;;;;;;;2.69;71.35;97682.47;5076111;28;20207;-70
2022/03/22 06:36:08;;;;;;;11.33;5.53;;;;;;;2.85;71.16;97678.00;5076816;28;20219;-69
2022/03/22 06:38:35;;;;;;;10.80;5.17;;;;;;;3.04;69.96;97683.69;5076725;28;20203;-69
2022/03/22 06:41:02;;;;;;;8.80;5.70;;;;;;;2.98;69.79;97689.31;5076032;28;20248;-69
2022/03/22 06:43:29;;;;;;;13.80;4.83;;;;;;;2.94;72.43;97677.41;5075926;28;20744;-69
2022/03/22 06:45:56;;;;;;;16.27;6.80;;;;;;;3.00;72.02;97681.41;5076736;28;20252;-69
2022/03/22 06:48:23;;;;;;;7.03;4.90;;;;;;;3.13;72.67;97681.38;5076443;28;20223;-70
2022/03/22 06:50:51;;;;;;;18.03;5.77;;;;;;;3.31;74.50;97681.94;5076632;28;20204;-69
2022/03/22 06:53:19;;;;;;;13.60;5.27;;;;;;;3.52;73.84;97681.41;5075947;28;20206;-70
2022/03/22 06:55:46;;;;;;;9.27;5.07;;;;;;;3.57;72.63;97688.94;5076528;28;20226;-69
2022/03/22 06:58:14;;;;;;;12.07;5.00;;;;;;;3.70;71.55;97681.06;5076362;28;20199;-68
2022/03/22 07:00:41;;;;;;;12.50;5.10;;;;;;;3.89;71.14;97675.44;5080690;28;20237;-69
2022/03/22 07:03:08;;;;;;;10.97;5.43;;;;;;;3.88;69.80;97674.63;5079720;28;20204;-69
2022/03/22 07:05:34;;;;;;;10.67;5.23;;;;;;;4.06;69.67;97681.22;5080619;28;20223;-68
2022/03/22 07:08:01;;;;;;;16.07;6.03;;;;;;;4.15;69.97;97682.34;5079931;28;20231;-69
2022/03/22 07:10:31;;;;;;;14.13;5.33;;;;;;;4.32;69.65;97680.28;5080263;28;20291;-69
2022/03/22 07:12:59;;;;;;;12.60;6.30;;;;;;;4.37;68.94;97683.41;5079332;28;20217;-70
2022/03/22 07:15:29;;;;;;;8.07;4.57;;;;;;;4.50;68.80;97690.28;5081231;28;20329;-69
2022/03/22 07:17:58;;;;;;;12.20;5.73;;;;;;;4.57;69.68;97688.09;5081108;28;20203;-69
2022/03/22 07:20:24;;;;;;;18.80;6.63;;;;;;;4.76;68.67;97691.94;5079981;28;20658;-69
2022/03/22 07:22:51;;;;;;;17.03;5.50;;;;;;;4.80;68.70;97692.56;5079249;28;20212;-68
2022/03/22 07:25:18;;;;;;;8.33;3.60;;;;;;;4.69;68.37;97689.88;5079718;28;20223;-69
2022/03/22 07:27:46;;;;;;;11.07;5.67;;;;;;;5.09;67.91;97686.94;5077526;28;20233;-68
2022/03/22 07:30:14;;;;;;;10.70;3.57;;;;;;;5.30;65.92;97688.88;5079905;28;20208;-69
2022/03/22 07:32:41;;;;;;;11.17;4.27;;;;;;;5.52;65.16;97691.59;5078978;28;20215;-69
2022/03/22 07:35:09;;;;;;;8.87;4.77;;;;;;;5.77;63.38;97688.91;5079989;28;20254;-69
2022/03/22 07:37:37;;;;;;;7.27;3.10;;;;;;;5.93;62.25;97692.06;5079555;28;20203;-68
2022/03/22 07:40:06;;;;;;;9.93;4.10;;;;;;;5.90;62.74;97694.91;5079602;28;20200;-69
2022/03/22 07:42:33;;;;;;;8.03;3.33;;;;;;;6.04;61.67;97688.50;5079175;28;21103;-69
2022/03/22 07:45:03;;;;;;;11.20;3.97;;;;;;;6.35;60.75;97684.44;5079233;28;20230;-69
2022/03/22 07:47:30;;;;;;;11.50;4.73;;;;;;;6.15;59.04;97690.34;5079186;28;20318;-69
2022/03/22 07:53:01;;;;;;;6.33;3.40;;;;;;;6.44;58.78;97687.19;5078246;28;20210;-69
2022/03/22 07:55:29;;;;;;;9.60;3.70;;;;;;;6.49;58.44;97692.91;5079394;28;20230;-69
2022/03/22 07:57:55;;;;;;;7.37;4.13;;;;;;;6.49;58.20;97690.31;5079652;28;20200;-69
2022/03/22 08:00:23;;;;;;;10.93;4.80;;;;;;;6.88;57.58;97692.44;5079445;28;20200;-69
2022/03/22 08:02:51;;;;;;;7.47;3.80;;;;;;;6.93;57.30;97699.00;5078258;28;20586;-69
2022/03/22 08:05:17;;;;;;;7.67;3.17;;;;;;;6.70;57.76;97699.13;5079316;28;20223;-69
2022/03/22 08:07:44;;;;;;;7.13;3.50;;;;;;;6.79;56.28;97698.41;5079685;28;20204;-69
2022/03/22 08:10:10;;;;;;;9.13;4.07;;;;;;;6.93;55.79;97690.31;5078290;28;20310;-69
2022/03/22 08:12:37;;;;;;;12.37;4.17;;;;;;;7.04;55.19;97701.63;5078581;28;20200;-69
2022/03/22 08:15:05;;;;;;;11.43;4.37;;;;;;;6.93;56.21;97693.75;5079343;28;20235;-69
2022/03/22 08:17:33;;;;;;;9.50;4.20;;;;;;;7.57;54.40;97703.44;5075898;28;20212;-69
2022/03/22 08:19:59;;;;;;;6.47;4.03;;;;;;;7.46;53.04;97691.19;5079276;28;20196;-69
2022/03/22 08:22:25;;;;;;;10.93;4.57;;;;;;;7.66;52.95;97698.28;5078508;28;21165;-69
2022/03/22 08:24:52;;;;;;;12.47;4.53;;;;;;;7.73;52.94;97699.44;5078771;28;20227;-70
2022/03/22 08:27:19;;;;;;;9.07;4.10;;;;;;;7.82;53.66;97696.06;5079396;28;20196;-68
2022/03/22 08:29:46;;;;;;;7.40;4.20;;;;;;;7.90;52.90;97688.41;5078704;28;20220;-70
2022/03/22 08:32:12;;;;;;;6.70;4.13;;;;;;;8.06;53.73;97687.03;5078219;28;20558;-70
2022/03/22 08:34:40;;;;;;;11.13;4.57;;;;;;;8.31;52.68;97685.84;5078408;28;20228;-69
2022/03/22 08:37:07;;;;;;;9.43;4.50;;;;;;;8.22;51.91;97678.72;5079054;28;20210;-69
2022/03/22 08:39:33;;;;;;;11.80;5.30;;;;;;;8.03;52.30;97686.44;5078178;28;20204;-69
2022/03/22 08:42:00;;;;;;;11.80;4.07;;;;;;;7.83;52.91;97681.16;5078792;28;20211;-70
2022/03/22 08:44:26;;;;;;;10.33;5.60;;;;;;;8.00;52.38;97684.88;5078460;28;20228;-69
2022/03/22 08:46:53;;;;;;;13.27;4.33;;;;;;;8.08;52.83;97677.25;5078406;28;20586;-70
2022/03/22 08:49:19;;;;;;;9.70;4.23;;;;;;;8.14;52.53;97676.75;5078529;28;20222;-69
2022/03/22 08:51:50;;;;;;;11.20;5.93;;;;;;;8.48;52.32;97677.38;5078532;28;20682;-69
2022/03/22 08:54:17;;;;;;;11.83;5.10;;;;;;;8.61;52.18;97673.59;5078195;28;20234;-69
2022/03/22 08:56:44;;;;;;;10.83;4.77;;;;;;;8.68;51.64;97675.56;5078153;28;20257;-69
2022/03/22 08:59:10;;;;;;;23.97;4.33;;;;;;;8.91;51.11;97674.44;5078701;28;20204;-70
2022/03/22 09:01:37;;;;;;;12.73;5.27;;;;;;;9.01;51.08;97677.91;5078178;28;20204;-69
2022/03/22 09:06:49;;;;;;;8.83;4.13;;;;;;;9.47;50.40;97672.94;5078301;28;20325;-69
2022/03/22 09:09:16;;;;;;;8.10;4.83;;;;;;;9.61;49.51;97672.53;5079079;28;20233;-69
2022/03/22 09:11:42;;;;;;;10.70;4.53;;;;;;;9.67;50.86;97666.75;5077450;28;20211;-69
2022/03/22 09:14:09;;;;;;;14.70;5.87;;;;;;;9.90;50.04;97664.53;5077143;28;20226;-70
2022/03/22 09:16:36;;;;;;;10.57;4.57;;;;;;;10.32;50.95;97668.53;5075557;28;20200;-69
2022/03/22 09:19:02;;;;;;;19.53;6.13;;;;;;;10.47;49.54;97664.50;5077707;28;20211;-70
2022/03/22 09:21:29;;;;;;;9.60;4.20;;;;;;;10.15;49.14;97664.00;5077509;28;20235;-69
2022/03/22 09:23:58;;;;;;;11.47;4.67;;;;;;;10.01;50.99;97666.22;5076992;28;20223;-69
2022/03/22 09:26:24;;;;;;;13.10;4.23;;;;;;;10.10;51.14;97666.22;5078016;28;20582;-69
2022/03/22 09:28:52;;;;;;;11.20;4.67;;;;;;;10.36;50.73;97667.28;5077506;28;20220;-70
2022/03/22 09:31:20;;;;;;;11.87;4.93;;;;;;;10.37;50.61;97663.69;5078053;28;21089;-70
2022/03/22 09:33:48;;;;;;;12.17;5.53;;;;;;;10.59;48.26;97660.72;5076990;28;20269;-70
2022/03/22 09:36:15;;;;;;;14.70;4.73;;;;;;;10.37;50.59;97663.69;5074761;28;20200;-70
2022/03/22 09:38:42;;;;;;;17.00;5.50;;;;;;;10.72;48.89;97658.63;5076598;28;20379;-70
2022/03/22 09:41:13;;;;;;;14.27;6.07;;;;;;;11.26;49.61;97648.94;5076618;28;20209;-70
2022/03/22 09:43:46;;;;;;;11.77;5.90;;;;;;;11.38;50.58;97648.59;5075564;28;20210;-69
2022/03/22 09:46:18;;;;;;;16.43;6.83;;;;;;;11.47;47.67;97647.72;5076236;28;20207;-70
2022/03/22 09:48:45;;;;;;;14.43;5.10;;;;;;;11.41;48.85;97652.75;5076749;28;20525;-70
2022/03/22 09:53:56;;;;;;;15.03;5.30;;;;;;;11.13;48.16;97651.91;5075757;28;20710;-70
2022/03/22 09:56:30;;;;;;;13.73;4.47;;;;;;;11.70;49.85;97641.88;5076461;28;20690;-69
2022/03/22 09:58:57;;;;;;;16.67;6.40;;;;;;;11.63;47.30;97642.63;5076680;28;20314;-70
2022/03/22 10:01:24;;;;;;;12.07;5.13;;;;;;;11.63;48.97;97642.63;5076251;28;20592;-70
2022/03/22 10:03:58;;;;;;;12.87;5.47;;;;;;;11.91;47.59;97631.84;5075958;28;20223;-69
2022/03/22 10:06:25;;;;;;;12.27;5.47;;;;;;;11.40;48.31;97636.06;5075809;28;20199;-70
2022/03/22 10:08:52;;;;;;;17.03;5.80;;;;;;;12.13;48.38;97630.53;5076287;28;20223;-69
2022/03/22 10:11:20;;;;;;;16.47;6.23;;;;;;;11.76;46.63;97638.66;5075863;28;20200;-69
2022/03/22 10:13:56;;;;;;;17.20;6.33;;;;;;;12.23;48.33;97626.81;5074792;28;20220;-70
2022/03/22 10:16:23;;;;;;;10.70;5.17;;;;;;;11.91;46.98;97621.28;5073006;28;20207;-70
2022/03/22 10:18:50;;;;;;;22.43;6.23;;;;;;;12.82;47.51;97630.38;5075724;28;21059;-70
2022/03/22 10:21:16;;;;;;;14.00;5.57;;;;;;;13.27;44.72;97623.00;5075646;28;20200;-70
2022/03/22 10:23:50;;;;;;;16.40;6.03;;;;;;;13.62;45.69;97615.66;5074956;28;20211;-70
2022/03/22 10:26:17;;;;;;;14.30;6.13;;;;;;;12.89;45.56;97615.56;5076117;28;20203;-71
2022/03/22 10:28:51;;;;;;;14.02;5.40;;;;;;;13.35;45.94;97610.59;5075879;28;20687;-69
2022/03/22 10:31:20;;;;;;;20.73;5.30;;;;;;;13.50;44.28;97614.31;5075699;28;20203;-70
2022/03/22 10:33:51;;;;;;;15.17;5.80;;;;;;;13.82;44.95;97614.38;5075026;28;20458;-70
2022/03/22 10:36:21;;;;;;;11.90;5.43;;;;;;;13.58;43.43;97611.66;5077221;28;20219;-70
2022/03/22 10:38:56;;;;;;;17.67;5.77;;;;;;;14.06;44.24;97609.91;5076491;28;20318;-71
2022/03/22 10:41:27;;;;;;;12.57;5.85;;;;;;;14.23;43.59;97612.44;5075833;28;20203;-70
2022/03/22 10:44:03;;;;;;;17.43;6.17;;;;;;;14.31;43.06;97603.66;5075408;28;20294;-70
2022/03/22 10:46:31;;;;;;;18.90;6.90;;;;;;;14.31;43.83;97609.78;5076197;28;20211;-70
2022/03/22 10:49:05;;;;;;;15.55;6.32;;;;;;;14.50;43.65;97600.63;5076704;28;20204;-70
2022/03/22 10:51:44;;;;;;;18.15;6.57;;;;;;;14.57;42.40;97601.63;5076638;28;20257;-70
2022/03/22 10:54:12;;;;;;;15.02;5.22;;;;;;;14.80;41.80;97608.69;5075213;28;20223;-70
2022/03/22 10:56:45;;;;;;;16.63;6.25;;;;;;;15.22;41.49;97594.16;5075159;28;20208;-70
2022/03/22 10:59:13;;;;;;;13.70;6.07;;;;;;;15.30;41.78;97589.63;5076427;28;20949;-70
2022/03/22 11:01:42;;;;;;;13.20;5.20;;;;;;;15.39;40.73;97591.25;5076148;28;20203;-70
2022/03/22 11:04:09;;;;;;;17.38;5.55;;;;;;;15.57;40.22;97591.00;5075099;28;20274;-71
2022/03/22 11:06:38;;;;;;;11.95;5.13;;;;;;;15.58;39.99;97588.16;5076891;28;20211;-71
2022/03/22 11:09:06;;;;;;;18.73;5.70;;;;;;;15.24;41.07;97581.53;5076683;28;20199;-69
2022/03/22 11:11:33;;;;;;;15.35;6.68;;;;;;;15.58;41.81;97582.84;5076307;28;20204;-70
2022/03/22 11:14:00;;;;;;;14.65;5.40;;;;;;;15.61;41.00;97581.66;5075328;28;20722;-70
2022/03/22 11:16:29;;;;;;;16.33;6.60;;;;;;;15.95;40.28;97583.75;5073747;28;20220;-70
2022/03/22 11:19:00;;;;;;;15.77;6.57;;;;;;;15.90;39.27;97583.44;5076523;28;20199;-70
2022/03/22 11:21:27;;;;;;;18.23;6.68;;;;;;;15.75;40.51;97580.91;5076337;28;20204;-70
2022/03/22 11:24:04;;;;;;;17.38;6.55;;;;;;;15.48;41.97;97582.22;5075817;28;20298;-70
2022/03/22 11:26:30;;;;;;;17.20;6.80;;;;;;;15.49;41.89;97578.59;5076019;28;20616;-71
2022/03/22 11:28:57;;;;;;;11.68;5.82;;;;;;;15.50;41.35;97574.09;5076018;28;20200;-70
2022/03/22 11:31:26;;;;;;;14.85;6.72;;;;;;;15.58;39.99;97574.03;5076750;28;20211;-71
2022/03/22 11:34:11;;;;;;;19.17;6.60;;;;;;;16.11;38.75;97580.13;5075265;28;20224;-70
2022/03/22 11:36:45;;;;;;;13.63;6.25;;;;;;;15.58;40.06;97566.91;5075932;28;20200;-70
2022/03/22 11:39:18;;;;;;;17.85;7.03;;;;;;;15.98;39.81;97562.09;5076366;28;20211;-71
2022/03/22 11:44:36;;;;;;;25.15;6.72;;;;;;;16.48;40.15;97562.34;5075244;28;20680;-69
2022/03/22 11:47:08;;;;;;;17.83;6.85;;;;;;;16.83;38.56;97556.34;5079303;28;20208;-69
2022/03/22 11:49:56;;;;;;;15.82;6.88;;;;;;;16.91;38.63;97556.25;5079713;28;20285;-69
2022/03/22 11:52:25;;;;;;;16.25;5.95;;;;;;;16.35;39.78;97554.19;5074045;28;20203;-69
2022/03/22 11:54:58;;;;;;;17.83;6.88;;;;;;;17.06;38.56;97551.75;5079576;28;20224;-69
2022/03/22 11:57:25;;;;;;;15.45;6.18;;;;;;;17.12;37.81;97547.31;5079439;28;20211;-69
2022/03/22 11:59:53;;;;;;;15.20;6.25;;;;;;;16.74;39.93;97546.81;5079410;28;20204;-68
2022/03/22 12:02:22;;;;;;;17.50;6.90;;;;;;;16.71;38.36;97544.50;5078600;28;20728;-69
2022/03/22 12:04:55;;;;;;;23.40;5.75;;;;;;;16.88;37.76;97545.94;5079594;28;20230;-69
2022/03/22 12:07:27;;;;;;;19.23;6.93;;;;;;;17.21;37.03;97537.41;5079213;28;20200;-69